sensor_id;sensor_type;location;lat;lon;timestamp;P1;P2;P0
50956;PMS5003;55361;50.876;20.634;2024-01-27T00:00:11;11;9;6
50956;PMS5003;55361;50.876;20.634;2024-01-27T00:10:14;6;5;4
50956;PMS5003;55361;50.876;20.634;2024-01-27T00:20:07;6;5;4
50956;PMS5003;55361;50.876;20.634;2024-01-27T00:30:16;6;5;4
50956;PMS5003;55361;50.876;20.634;2024-01-27T00:50:17;4;3;2
50956;PMS5003;55361;50.876;20.634;2024-01-27T01:00:08;4;3;2
50956;PMS5003;55361;50.876;20.634;2024-01-27T01:10:10;3;2;2
50956;PMS5003;55361;50.876;20.634;2024-01-27T01:20:05;3;2;2
50956;PMS5003;55361;50.876;20.634;2024-01-27T01:30:05;3;2;2
50956;PMS5003;55361;50.876;20.634;2024-01-27T01:40:13;2;2;2
50956;PMS5003;55361;50.876;20.634;2024-01-27T01:50:13;2;2;2
50956;PMS5003;55361;50.876;20.634;2024-01-27T02:00:11;2;2;2
50956;PMS5003;55361;50.876;20.634;2024-01-27T02:10:36;2;1;1
50956;PMS5003;55361;50.876;20.634;2024-01-27T02:20:13;2;1;1
50956;PMS5003;55361;50.876;20.634;2024-01-27T02:30:18;2;1;1
50956;PMS5003;55361;50.876;20.634;2024-01-27T02:40:15;4;2;1
50956;PMS5003;55361;50.876;20.634;2024-01-27T02:50:16;4;2;1
50956;PMS5003;55361;50.876;20.634;2024-01-27T03:00:07;4;2;1
50956;PMS5003;55361;50.876;20.634;2024-01-27T03:10:09;2;1;1
50956;PMS5003;55361;50.876;20.634;2024-01-27T03:20:04;2;1;1
50956;PMS5003;55361;50.876;20.634;2024-01-27T03:30:11;2;1;1
50956;PMS5003;55361;50.876;20.634;2024-01-27T03:40:12;0;0;0
50956;PMS5003;55361;50.876;20.634;2024-01-27T03:50:07;0;0;0
50956;PMS5003;55361;50.876;20.634;2024-01-27T04:00:21;0;0;0
50956;PMS5003;55361;50.876;20.634;2024-01-27T04:10:20;1;1;0
50956;PMS5003;55361;50.876;20.634;2024-01-27T04:20:11;1;1;0
50956;PMS5003;55361;50.876;20.634;2024-01-27T04:30:16;1;1;0
50956;PMS5003;55361;50.876;20.634;2024-01-27T04:40:11;1;1;0
50956;PMS5003;55361;50.876;20.634;2024-01-27T04:50:02;1;1;0
50956;PMS5003;55361;50.876;20.634;2024-01-27T05:00:18;1;1;0
50956;PMS5003;55361;50.876;20.634;2024-01-27T05:10:14;1;1;1
50956;PMS5003;55361;50.876;20.634;2024-01-27T05:20:02;1;1;1
50956;PMS5003;55361;50.876;20.634;2024-01-27T05:30:09;1;1;1
50956;PMS5003;55361;50.876;20.634;2024-01-27T05:40:01;3;2;1
50956;PMS5003;55361;50.876;20.634;2024-01-27T05:50:01;3;2;1
50956;PMS5003;55361;50.876;20.634;2024-01-27T06:00:15;3;2;1
50956;PMS5003;55361;50.876;20.634;2024-01-27T06:10:21;4;4;2
50956;PMS5003;55361;50.876;20.634;2024-01-27T06:20:13;4;4;2
50956;PMS5003;55361;50.876;20.634;2024-01-27T06:30:05;4;4;2
50956;PMS5003;55361;50.876;20.634;2024-01-27T06:40:10;3;3;2
50956;PMS5003;55361;50.876;20.634;2024-01-27T06:50:16;3;3;2
50956;PMS5003;55361;50.876;20.634;2024-01-27T07:00:20;3;3;2
50956;PMS5003;55361;50.876;20.634;2024-01-27T07:10:12;3;3;1
50956;PMS5003;55361;50.876;20.634;2024-01-27T07:20:04;3;3;1
50956;PMS5003;55361;50.876;20.634;2024-01-27T07:30:16;3;3;1
50956;PMS5003;55361;50.876;20.634;2024-01-27T07:40:06;7;6;3
50956;PMS5003;55361;50.876;20.634;2024-01-27T07:50:08;7;6;3
50956;PMS5003;55361;50.876;20.634;2024-01-27T08:00:18;7;6;3
50956;PMS5003;55361;50.876;20.634;2024-01-27T08:10:06;8;6;4
50956;PMS5003;55361;50.876;20.634;2024-01-27T08:20:03;8;6;4
50956;PMS5003;55361;50.876;20.634;2024-01-27T08:30:13;8;6;4
50956;PMS5003;55361;50.876;20.634;2024-01-27T08:40:14;7;7;3
50956;PMS5003;55361;50.876;20.634;2024-01-27T08:50:06;7;7;3
50956;PMS5003;55361;50.876;20.634;2024-01-27T09:00:18;7;7;3
50956;PMS5003;55361;50.876;20.634;2024-01-27T09:20:12;12;12;9
50956;PMS5003;55361;50.876;20.634;2024-01-27T09:30:18;12;12;9
50956;PMS5003;55361;50.876;20.634;2024-01-27T09:40:29;4;4;3
50956;PMS5003;55361;50.876;20.634;2024-01-27T09:50:27;4;4;3
50956;PMS5003;55361;50.876;20.634;2024-01-27T10:00:17;4;4;3
50956;PMS5003;55361;50.876;20.634;2024-01-27T10:20:08;7;7;4
50956;PMS5003;55361;50.876;20.634;2024-01-27T10:30:02;7;7;4
50956;PMS5003;55361;50.876;20.634;2024-01-27T10:40:13;4;3;2
50956;PMS5003;55361;50.876;20.634;2024-01-27T10:50:07;4;3;2
50956;PMS5003;55361;50.876;20.634;2024-01-27T11:00:13;4;3;2
50956;PMS5003;55361;50.876;20.634;2024-01-27T11:10:18;6;6;3
50956;PMS5003;55361;50.876;20.634;2024-01-27T11:20:20;6;6;3
50956;PMS5003;55361;50.876;20.634;2024-01-27T11:30:05;6;6;3
50956;PMS5003;55361;50.876;20.634;2024-01-27T11:40:13;8;7;3
50956;PMS5003;55361;50.876;20.634;2024-01-27T11:50:10;8;7;3
50956;PMS5003;55361;50.876;20.634;2024-01-27T12:00:01;8;7;3
50956;PMS5003;55361;50.876;20.634;2024-01-27T12:10:16;9;8;6
50956;PMS5003;55361;50.876;20.634;2024-01-27T12:20:32;9;8;6
50956;PMS5003;55361;50.876;20.634;2024-01-27T12:30:14;9;8;6
50956;PMS5003;55361;50.876;20.634;2024-01-27T12:40:30;15;13;9
50956;PMS5003;55361;50.876;20.634;2024-01-27T12:50:17;15;13;9
50956;PMS5003;55361;50.876;20.634;2024-01-27T13:00:18;15;13;9
50956;PMS5003;55361;50.876;20.634;2024-01-27T13:20:13;15;11;8
50956;PMS5003;55361;50.876;20.634;2024-01-27T13:30:06;15;11;8
50956;PMS5003;55361;50.876;20.634;2024-01-27T13:40:10;16;13;8
50956;PMS5003;55361;50.876;20.634;2024-01-27T13:50:16;16;13;8
50956;PMS5003;55361;50.876;20.634;2024-01-27T14:00:08;16;13;8
50956;PMS5003;55361;50.876;20.634;2024-01-27T14:10:09;17;11;8
50956;PMS5003;55361;50.876;20.634;2024-01-27T14:20:05;17;11;8
50956;PMS5003;55361;50.876;20.634;2024-01-27T14:30:11;17;11;8
50956;PMS5003;55361;50.876;20.634;2024-01-27T14:40:09;16;16;9
50956;PMS5003;55361;50.876;20.634;2024-01-27T14:50:06;16;16;9
50956;PMS5003;55361;50.876;20.634;2024-01-27T15:01:04;16;16;9
50956;PMS5003;55361;50.876;20.634;2024-01-27T15:10:13;17;15;10
50956;PMS5003;55361;50.876;20.634;2024-01-27T15:20:12;17;15;10
50956;PMS5003;55361;50.876;20.634;2024-01-27T15:30:15;17;15;10
50956;PMS5003;55361;50.876;20.634;2024-01-27T15:40:18;22;17;13
50956;PMS5003;55361;50.876;20.634;2024-01-27T15:50:16;22;17;13
50956;PMS5003;55361;50.876;20.634;2024-01-27T16:00:16;22;17;13
50956;PMS5003;55361;50.876;20.634;2024-01-27T16:20:06;13;12;8
50956;PMS5003;55361;50.876;20.634;2024-01-27T16:30:07;13;12;8
50956;PMS5003;55361;50.876;20.634;2024-01-27T16:50:04;15;13;8
50956;PMS5003;55361;50.876;20.634;2024-01-27T17:00:06;15;13;8
50956;PMS5003;55361;50.876;20.634;2024-01-27T17:20:05;26;22;16
50956;PMS5003;55361;50.876;20.634;2024-01-27T17:30:27;26;22;16
50956;PMS5003;55361;50.876;20.634;2024-01-27T17:50:19;16;15;12
50956;PMS5003;55361;50.876;20.634;2024-01-27T18:00:02;16;15;12
50956;PMS5003;55361;50.876;20.634;2024-01-27T18:10:10;16;15;12
50956;PMS5003;55361;50.876;20.634;2024-01-27T18:20:18;20;20;13
50956;PMS5003;55361;50.876;20.634;2024-01-27T18:30:15;20;20;13
50956;PMS5003;55361;50.876;20.634;2024-01-27T18:40:02;20;20;13
50956;PMS5003;55361;50.876;20.634;2024-01-27T18:50:19;36;28;19
50956;PMS5003;55361;50.876;20.634;2024-01-27T19:00:02;36;28;19
50956;PMS5003;55361;50.876;20.634;2024-01-27T19:10:09;36;28;19
50956;PMS5003;55361;50.876;20.634;2024-01-27T19:20:17;22;20;13
50956;PMS5003;55361;50.876;20.634;2024-01-27T19:30:17;22;20;13
50956;PMS5003;55361;50.876;20.634;2024-01-27T19:40:22;22;20;13
50956;PMS5003;55361;50.876;20.634;2024-01-27T19:50:05;26;22;14
50956;PMS5003;55361;50.876;20.634;2024-01-27T20:00:10;26;22;14
50956;PMS5003;55361;50.876;20.634;2024-01-27T20:10:12;26;22;14
50956;PMS5003;55361;50.876;20.634;2024-01-27T20:20:17;15;12;10
50956;PMS5003;55361;50.876;20.634;2024-01-27T20:30:05;15;12;10
50956;PMS5003;55361;50.876;20.634;2024-01-27T20:40:12;15;12;10
50956;PMS5003;55361;50.876;20.634;2024-01-27T20:50:01;16;16;13
50956;PMS5003;55361;50.876;20.634;2024-01-27T21:00:02;16;16;13
50956;PMS5003;55361;50.876;20.634;2024-01-27T21:10:10;16;16;13
50956;PMS5003;55361;50.876;20.634;2024-01-27T21:20:02;15;14;10
50956;PMS5003;55361;50.876;20.634;2024-01-27T21:30:15;15;14;10
50956;PMS5003;55361;50.876;20.634;2024-01-27T21:40:19;15;14;10
50956;PMS5003;55361;50.876;20.634;2024-01-27T21:50:16;21;19;13
50956;PMS5003;55361;50.876;20.634;2024-01-27T22:00:19;21;19;13
50956;PMS5003;55361;50.876;20.634;2024-01-27T22:10:12;21;19;13
50956;PMS5003;55361;50.876;20.634;2024-01-27T22:20:16;14;13;9
50956;PMS5003;55361;50.876;20.634;2024-01-27T22:30:26;14;13;9
50956;PMS5003;55361;50.876;20.634;2024-01-27T22:40:02;14;13;9
50956;PMS5003;55361;50.876;20.634;2024-01-27T22:50:13;9;8;6
50956;PMS5003;55361;50.876;20.634;2024-01-27T23:00:06;9;8;6
50956;PMS5003;55361;50.876;20.634;2024-01-27T23:10:11;8;7;4
50956;PMS5003;55361;50.876;20.634;2024-01-27T23:20:04;8;7;4
50956;PMS5003;55361;50.876;20.634;2024-01-27T23:30:16;8;7;4
50956;PMS5003;55361;50.876;20.634;2024-01-27T23:40:05;6;6;4
50956;PMS5003;55361;50.876;20.634;2024-01-27T23:50:07;6;6;4
